createdAt,value
2023-04-25T00:01:31.369Z,99.90
2023-04-25T00:04:02.607Z,99.90
2023-04-25T00:06:30.975Z,99.90
2023-04-25T00:09:01.622Z,99.90
2023-04-25T00:11:28.633Z,99.90
2023-04-25T00:13:57.471Z,99.90
2023-04-25T00:16:25.250Z,99.90
2023-04-25T00:18:55.248Z,99.90
2023-04-25T00:21:25.714Z,99.90
2023-04-25T00:23:54.918Z,99.90
2023-04-25T00:26:22.479Z,99.90
2023-04-25T00:28:49.613Z,99.90
2023-04-25T00:31:21.527Z,99.90
2023-04-25T00:33:49.587Z,99.90
2023-04-25T00:36:18.595Z,99.90
2023-04-25T00:38:45.716Z,99.90
2023-04-25T00:41:20.133Z,99.90
2023-04-25T00:43:49.872Z,99.90
2023-04-25T00:46:21.503Z,99.90
2023-04-25T00:48:52.285Z,99.90
2023-04-25T00:51:23.279Z,99.90
2023-04-25T00:53:51.962Z,99.90
2023-04-25T00:56:19.586Z,99.90
2023-04-25T00:58:46.849Z,99.90
2023-04-25T01:01:14.404Z,99.90
2023-04-25T01:03:44.262Z,99.90
2023-04-25T01:06:14.122Z,99.90
2023-04-25T01:08:47.559Z,99.90
2023-04-25T01:11:17.508Z,99.90
2023-04-25T01:13:47.133Z,99.90
2023-04-25T01:16:17.430Z,99.90
2023-04-25T01:18:47.197Z,99.90
2023-04-25T01:21:19.615Z,99.90
2023-04-25T01:23:46.799Z,99.90
2023-04-25T01:26:14.534Z,99.90
2023-04-25T01:28:42.778Z,99.90
2023-04-25T01:31:10.830Z,99.90
2023-04-25T01:33:38.587Z,99.90
2023-04-25T01:36:07.373Z,99.90
2023-04-25T01:38:36.749Z,99.90
2023-04-25T01:41:04.113Z,99.90
2023-04-25T01:43:31.688Z,99.90
2023-04-25T01:45:58.907Z,99.90
2023-04-25T01:48:26.446Z,99.90
2023-04-25T01:50:54.228Z,99.90
2023-04-25T01:53:23.947Z,99.90
2023-04-25T01:56:00.298Z,99.90
2023-04-25T01:58:29.996Z,99.90
2023-04-25T02:00:56.932Z,99.90
2023-04-25T02:03:24.615Z,99.90
2023-04-25T02:05:52.243Z,99.90
2023-04-25T02:08:22.699Z,99.90
2023-04-25T02:10:50.162Z,99.90
2023-04-25T02:13:24.439Z,99.90
2023-04-25T02:15:58.723Z,99.90
2023-04-25T02:18:27.715Z,99.90
2023-04-25T02:20:54.850Z,99.90
2023-04-25T02:23:25.282Z,99.90
2023-04-25T02:25:56.295Z,99.90
2023-04-25T02:28:28.190Z,99.90
2023-04-25T02:30:55.319Z,99.90
2023-04-25T02:33:25.988Z,99.90
2023-04-25T02:35:53.045Z,99.90
2023-04-25T02:38:23.508Z,99.90
2023-04-25T02:40:50.542Z,99.90
2023-04-25T02:43:20.586Z,99.90
2023-04-25T02:45:48.999Z,99.90
2023-04-25T02:48:19.710Z,99.90
2023-04-25T02:50:47.180Z,99.90
2023-04-25T02:53:14.813Z,99.90
2023-04-25T02:55:42.125Z,99.90
2023-04-25T02:58:09.750Z,99.90
2023-04-25T03:00:36.911Z,99.90
2023-04-25T03:03:05.482Z,99.90
2023-04-25T03:05:33.023Z,99.90
2023-04-25T03:07:59.962Z,99.90
2023-04-25T03:13:14.652Z,99.90
2023-04-25T03:15:44.903Z,99.90
2023-04-25T03:18:13.284Z,99.90
2023-04-25T03:23:33.836Z,99.90
2023-04-25T03:26:04.545Z,99.90
2023-04-25T03:28:32.071Z,99.90
2023-04-25T03:31:05.122Z,99.90
2023-04-25T03:33:33.960Z,99.90
2023-04-25T03:36:01.655Z,99.90
2023-04-25T03:38:31.874Z,99.90
2023-04-25T03:40:59.337Z,99.90
2023-04-25T03:43:26.781Z,99.90
2023-04-25T03:45:56.802Z,99.90
2023-04-25T03:48:26.149Z,99.90
2023-04-25T03:50:55.342Z,99.90
2023-04-25T03:53:22.584Z,99.90
2023-04-25T03:55:49.504Z,99.90
2023-04-25T03:58:17.133Z,99.90
2023-04-25T04:00:44.580Z,99.90
2023-04-25T04:03:12.141Z,99.90
2023-04-25T04:05:41.597Z,99.90
2023-04-25T04:08:10.000Z,99.90
2023-04-25T04:10:40.641Z,99.90
2023-04-25T04:13:13.558Z,99.90
2023-04-25T04:15:41.152Z,99.90
2023-04-25T04:21:01.859Z,99.90
2023-04-25T04:23:30.652Z,99.90
2023-04-25T04:25:57.778Z,99.90
2023-04-25T04:28:25.242Z,99.90
2023-04-25T04:30:53.428Z,99.90
2023-04-25T04:33:20.617Z,99.90
2023-04-25T04:35:48.116Z,99.90
2023-04-25T04:38:17.066Z,99.90
2023-04-25T04:40:45.447Z,99.90
2023-04-25T04:43:13.077Z,99.90
2023-04-25T04:45:41.238Z,99.90
2023-04-25T04:48:08.435Z,99.90
2023-04-25T04:50:36.492Z,99.90
2023-04-25T04:53:04.862Z,99.90
2023-04-25T04:55:34.081Z,99.90
2023-04-25T04:58:02.471Z,99.90
2023-04-25T05:00:30.505Z,99.90
2023-04-25T05:02:58.070Z,99.90
2023-04-25T05:05:25.764Z,99.90
2023-04-25T05:07:52.733Z,99.90
2023-04-25T05:10:22.518Z,99.90
2023-04-25T05:12:49.712Z,99.90
2023-04-25T05:15:18.268Z,99.90
2023-04-25T05:17:45.853Z,99.90
2023-04-25T05:20:15.022Z,99.90
2023-04-25T05:22:42.673Z,99.90
2023-04-25T05:25:11.141Z,99.90
2023-04-25T05:27:39.178Z,99.90
2023-04-25T05:30:13.739Z,99.90
2023-04-25T05:32:42.350Z,99.90
2023-04-25T05:35:10.048Z,99.90
2023-04-25T05:37:40.434Z,99.90
2023-04-25T05:40:09.716Z,99.90
2023-04-25T05:42:42.826Z,99.90
2023-04-25T05:45:10.650Z,99.90
2023-04-25T05:47:41.686Z,99.90
2023-04-25T05:50:10.275Z,99.90
2023-04-25T05:52:40.318Z,99.90
2023-04-25T05:55:08.650Z,99.90
2023-04-25T05:57:35.924Z,99.90
2023-04-25T06:00:05.344Z,99.90
2023-04-25T06:02:32.494Z,99.90
2023-04-25T06:05:01.763Z,99.90
2023-04-25T06:07:28.922Z,99.90
2023-04-25T06:10:02.427Z,99.90
2023-04-25T06:12:29.931Z,99.90
2023-04-25T06:14:56.987Z,99.90
2023-04-25T06:17:24.082Z,99.90
2023-04-25T06:19:54.246Z,99.90
2023-04-25T06:22:25.173Z,99.90
2023-04-25T06:24:52.349Z,99.90
2023-04-25T06:27:19.366Z,99.90
2023-04-25T06:29:52.424Z,99.90
2023-04-25T06:32:19.578Z,99.90
2023-04-25T06:34:54.224Z,99.90
2023-04-25T06:37:22.553Z,99.90
2023-04-25T06:39:50.061Z,99.90
2023-04-25T06:42:17.146Z,99.90
2023-04-25T06:44:44.694Z,99.90
2023-04-25T06:47:11.737Z,99.90
2023-04-25T06:49:39.519Z,99.90
2023-04-25T06:52:09.806Z,99.90
2023-04-25T06:54:38.182Z,99.90
2023-04-25T06:57:05.928Z,99.90
2023-04-25T06:59:34.156Z,99.90
2023-04-25T07:02:04.883Z,99.90
2023-04-25T07:04:32.121Z,99.20
2023-04-25T07:07:02.247Z,99.20
2023-04-25T07:09:29.847Z,97.80
2023-04-25T07:11:58.174Z,95.50
2023-04-25T07:14:31.304Z,92.70
2023-04-25T07:16:58.376Z,92.10
2023-04-25T07:19:27.988Z,94.00
2023-04-25T07:21:54.968Z,95.20
2023-04-25T07:24:22.445Z,96.20
2023-04-25T07:26:49.416Z,96.80
2023-04-25T07:29:17.877Z,97.50
2023-04-25T07:34:31.085Z,98.60
2023-04-25T07:36:58.149Z,98.60
2023-04-25T07:39:25.749Z,98.90
2023-04-25T07:41:54.982Z,98.70
2023-04-25T07:44:24.296Z,99.70
2023-04-25T07:46:51.369Z,99.30
2023-04-25T07:49:18.926Z,98.10
2023-04-25T07:51:48.843Z,97.40
2023-04-25T07:54:19.725Z,97.30
2023-04-25T07:56:53.419Z,97.80
2023-04-25T07:59:26.367Z,96.90
2023-04-25T08:01:54.137Z,97.20
2023-04-25T08:04:27.083Z,96.80
2023-04-25T08:06:57.671Z,96.10
2023-04-25T08:09:27.969Z,95.80
2023-04-25T08:11:55.329Z,95.20
2023-04-25T08:14:24.130Z,95.20
2023-04-25T08:16:51.714Z,93.50
2023-04-25T08:19:26.672Z,91.90
2023-04-25T08:21:58.049Z,90.90
2023-04-25T08:24:25.295Z,90.10
2023-04-25T08:26:52.922Z,90.40
2023-04-25T08:29:20.365Z,91.00
2023-04-25T08:31:49.058Z,91.70
2023-04-25T08:34:19.563Z,92.50
2023-04-25T08:36:46.934Z,93.20
2023-04-25T08:39:14.330Z,94.00
2023-04-25T08:41:42.586Z,93.50
2023-04-25T08:44:12.897Z,93.30
2023-04-25T08:46:41.844Z,93.30
2023-04-25T08:49:14.218Z,93.20
2023-04-25T08:51:47.860Z,92.70
2023-04-25T08:54:33.530Z,92.30
2023-04-25T08:57:05.648Z,92.60
2023-04-25T08:59:35.625Z,93.70
2023-04-25T09:02:04.591Z,93.40
2023-04-25T09:04:33.283Z,93.60
2023-04-25T09:07:03.151Z,93.60
2023-04-25T09:09:30.930Z,93.40
2023-04-25T09:11:58.183Z,93.70
2023-04-25T09:14:26.806Z,93.70
2023-04-25T09:17:06.075Z,93.60
2023-04-25T09:19:41.697Z,93.40
2023-04-25T09:22:09.818Z,93.60
2023-04-25T09:24:39.302Z,93.30
2023-04-25T09:27:08.014Z,93.00
2023-04-25T09:29:36.705Z,92.90
2023-04-25T09:32:20.613Z,92.40
2023-04-25T09:34:54.202Z,92.30
2023-04-25T09:37:26.263Z,92.70
2023-04-25T09:42:43.090Z,93.60
2023-04-25T09:45:17.063Z,93.50
2023-04-25T09:47:47.022Z,94.00
2023-04-25T09:50:20.817Z,94.50
2023-04-25T09:53:11.801Z,94.80
2023-04-25T09:55:44.556Z,94.90
2023-04-25T09:58:13.738Z,95.20
2023-04-25T10:00:42.407Z,94.60
2023-04-25T10:03:19.027Z,94.30
2023-04-25T10:05:50.652Z,94.20
2023-04-25T10:08:21.572Z,93.40
2023-04-25T10:10:51.763Z,93.40
2023-04-25T10:13:22.515Z,93.60
2023-04-25T10:15:51.887Z,93.40
2023-04-25T10:18:21.702Z,93.50
2023-04-25T10:21:01.077Z,93.50
2023-04-25T10:23:30.733Z,93.30
2023-04-25T10:25:58.808Z,93.10
2023-04-25T10:28:26.127Z,93.00
2023-04-25T10:31:02.600Z,93.20
2023-04-25T10:33:48.791Z,93.20
2023-04-25T10:36:31.720Z,93.40
2023-04-25T10:39:07.957Z,93.70
2023-04-25T10:41:53.996Z,94.10
2023-04-25T10:44:29.817Z,93.50
2023-04-25T10:46:58.853Z,93.00
2023-04-25T10:49:34.347Z,92.70
2023-04-25T10:52:18.775Z,92.60
2023-04-25T10:54:51.175Z,92.60
2023-04-25T10:57:39.296Z,92.30
2023-04-25T11:00:16.403Z,92.30
2023-04-25T11:02:48.543Z,92.50
2023-04-25T11:08:35.147Z,92.80
2023-04-25T11:11:05.834Z,93.00
2023-04-25T11:13:33.024Z,93.00
2023-04-25T11:16:12.371Z,92.50
2023-04-25T11:18:45.759Z,92.70
2023-04-25T11:21:14.466Z,92.60
2023-04-25T11:23:48.696Z,92.20
2023-04-25T11:26:16.260Z,92.00
2023-04-25T11:28:48.844Z,92.10
2023-04-25T11:31:16.387Z,92.00
2023-04-25T11:33:46.705Z,91.90
2023-04-25T11:36:14.330Z,91.90
2023-04-25T11:38:46.488Z,91.90
2023-04-25T11:41:14.534Z,91.80
2023-04-25T11:43:43.395Z,92.20
2023-04-25T11:46:11.715Z,92.00
2023-04-25T11:48:40.202Z,92.00
2023-04-25T11:51:07.891Z,92.10
2023-04-25T11:53:35.179Z,92.30
2023-04-25T11:56:13.355Z,91.80
2023-04-25T11:58:57.427Z,90.70
2023-04-25T12:01:30.492Z,90.90
2023-04-25T12:04:11.756Z,90.90
2023-04-25T12:06:42.319Z,90.60
2023-04-25T12:12:00.707Z,91.00
2023-04-25T12:14:30.280Z,90.50
2023-04-25T12:16:59.053Z,90.30
2023-04-25T12:19:34.167Z,90.30
2023-04-25T12:22:02.363Z,89.90
2023-04-25T12:24:29.623Z,89.00
2023-04-25T12:27:09.630Z,89.40
2023-04-25T12:29:49.298Z,89.50
2023-04-25T12:32:18.174Z,89.40
2023-04-25T12:34:46.476Z,89.80
2023-04-25T12:37:13.994Z,90.30
2023-04-25T12:39:41.645Z,90.10
2023-04-25T12:42:13.050Z,90.60
2023-04-25T12:44:43.747Z,90.90
2023-04-25T12:47:11.519Z,91.00
2023-04-25T12:49:38.878Z,91.20
2023-04-25T12:52:06.523Z,91.00
2023-04-25T12:54:34.139Z,90.90
2023-04-25T12:57:06.964Z,91.10
2023-04-25T12:59:35.444Z,91.10
2023-04-25T13:02:02.913Z,90.60
2023-04-25T13:04:30.513Z,90.10
2023-04-25T13:07:03.388Z,90.20
2023-04-25T13:09:30.923Z,89.80
2023-04-25T13:11:59.386Z,89.70
2023-04-25T13:14:29.260Z,88.90
2023-04-25T13:16:57.904Z,88.40
2023-04-25T13:19:25.589Z,87.70
2023-04-25T13:21:56.046Z,88.20
2023-04-25T13:24:23.602Z,88.10
2023-04-25T13:26:50.795Z,89.60
2023-04-25T13:29:18.379Z,90.00
2023-04-25T13:31:45.484Z,89.50
2023-04-25T13:34:14.851Z,89.40
2023-04-25T13:36:42.020Z,89.60
2023-04-25T13:39:09.490Z,89.20
2023-04-25T13:41:37.004Z,89.30
2023-04-25T13:44:04.973Z,89.50
2023-04-25T13:46:45.708Z,88.50
2023-04-25T13:49:15.906Z,87.50
2023-04-25T13:51:43.777Z,88.60
2023-04-25T13:54:12.182Z,88.90
2023-04-25T13:56:40.127Z,88.90
2023-04-25T13:59:07.492Z,89.00
2023-04-25T14:01:37.117Z,87.80
2023-04-25T14:04:07.475Z,88.00
2023-04-25T14:06:36.876Z,88.10
2023-04-25T14:09:05.329Z,87.20
2023-04-25T14:11:33.048Z,86.60
2023-04-25T14:14:00.374Z,86.40
2023-04-25T14:16:27.576Z,86.70
2023-04-25T14:18:55.880Z,85.10
2023-04-25T14:21:22.972Z,87.20
2023-04-25T14:23:51.651Z,86.80
2023-04-25T14:26:19.246Z,87.10
2023-04-25T14:28:46.441Z,86.70
2023-04-25T14:31:13.490Z,86.30
2023-04-25T14:33:44.012Z,86.90
2023-04-25T14:36:11.594Z,87.20
2023-04-25T14:38:39.132Z,86.00
2023-04-25T14:41:07.685Z,86.60
2023-04-25T14:43:35.288Z,85.80
2023-04-25T14:46:03.066Z,85.20
2023-04-25T14:48:30.919Z,86.50
2023-04-25T14:51:02.103Z,86.90
2023-04-25T14:56:15.968Z,87.10
2023-04-25T14:58:43.038Z,86.40
2023-04-25T15:01:10.785Z,86.20
2023-04-25T15:03:38.075Z,85.40
2023-04-25T15:06:07.141Z,85.80
2023-04-25T15:08:34.691Z,86.00
2023-04-25T15:11:03.867Z,84.90
2023-04-25T15:13:33.560Z,85.60
2023-04-25T15:16:04.960Z,86.10
2023-04-25T15:18:32.444Z,86.90
2023-04-25T15:21:02.611Z,86.60
2023-04-25T15:23:33.030Z,86.00
2023-04-25T15:26:03.450Z,86.30
2023-04-25T15:28:32.868Z,84.00
2023-04-25T15:31:00.419Z,84.40
2023-04-25T15:33:27.481Z,83.90
2023-04-25T15:35:55.368Z,82.40
2023-04-25T15:38:22.790Z,82.00
2023-04-25T15:40:50.055Z,82.90
2023-04-25T15:43:17.794Z,83.30
2023-04-25T15:45:49.015Z,82.60
2023-04-25T15:48:16.705Z,82.60
2023-04-25T15:50:44.352Z,82.50
2023-04-25T15:53:12.019Z,82.20
2023-04-25T15:55:39.256Z,82.40
2023-04-25T15:58:11.342Z,80.80
2023-04-25T16:00:40.518Z,80.00
2023-04-25T16:03:12.688Z,79.90
2023-04-25T16:05:42.543Z,80.10
2023-04-25T16:08:10.207Z,80.80
2023-04-25T16:10:40.201Z,80.00
2023-04-25T16:15:55.547Z,81.00
2023-04-25T16:18:24.304Z,80.90
2023-04-25T16:20:51.391Z,80.70
2023-04-25T16:23:19.702Z,81.90
2023-04-25T16:25:47.360Z,82.50
2023-04-25T16:28:14.422Z,81.50
2023-04-25T16:30:41.948Z,82.70
2023-04-25T16:33:12.530Z,82.70
2023-04-25T16:35:41.079Z,82.10
2023-04-25T16:38:11.468Z,82.60
2023-04-25T16:40:38.552Z,83.30
2023-04-25T16:43:11.098Z,83.60
2023-04-25T16:45:54.428Z,83.50
2023-04-25T16:48:24.243Z,83.90
2023-04-25T16:50:57.095Z,83.60
2023-04-25T16:53:24.562Z,84.40
2023-04-25T16:55:51.580Z,84.30
2023-04-25T16:58:19.681Z,85.10
2023-04-25T17:00:50.273Z,85.20
2023-04-25T17:03:17.606Z,85.50
2023-04-25T17:05:45.020Z,85.90
2023-04-25T17:08:20.214Z,86.00
2023-04-25T17:10:47.317Z,87.00
2023-04-25T17:13:20.447Z,86.60
2023-04-25T17:15:55.583Z,86.90
2023-04-25T17:18:26.102Z,87.10
2023-04-25T17:20:53.390Z,87.00
2023-04-25T17:23:27.725Z,87.60
2023-04-25T17:25:58.173Z,87.90
2023-04-25T17:28:25.675Z,88.10
2023-04-25T17:30:54.748Z,88.50
2023-04-25T17:33:27.531Z,89.40
2023-04-25T17:35:55.610Z,89.00
2023-04-25T17:38:27.622Z,89.60
2023-04-25T17:40:56.958Z,90.00
2023-04-25T17:43:25.073Z,89.80
2023-04-25T17:45:52.184Z,90.20
2023-04-25T17:48:23.039Z,90.20
2023-04-25T17:50:53.468Z,90.30
2023-04-25T17:53:21.496Z,90.20
2023-04-25T17:55:51.096Z,90.40
2023-04-25T17:58:18.324Z,90.20
2023-04-25T18:00:47.107Z,90.30
2023-04-25T18:03:14.785Z,90.00
2023-04-25T18:05:42.898Z,89.90
2023-04-25T18:08:10.406Z,90.10
2023-04-25T18:10:38.903Z,90.00
2023-04-25T18:13:10.520Z,90.00
2023-04-25T18:15:37.745Z,89.70
2023-04-25T18:18:14.715Z,88.90
2023-04-25T18:20:45.296Z,89.20
2023-04-25T18:23:13.491Z,89.20
2023-04-25T18:25:42.173Z,89.00
2023-04-25T18:28:10.610Z,89.10
2023-04-25T18:30:43.859Z,89.10
2023-04-25T18:33:10.966Z,89.30
2023-04-25T18:35:48.290Z,89.30
2023-04-25T18:38:35.624Z,88.50
2023-04-25T18:41:26.986Z,88.90
2023-04-25T18:43:53.551Z,89.00
2023-04-25T18:46:22.700Z,89.10
2023-04-25T18:48:53.804Z,89.10
2023-04-25T18:51:28.737Z,89.30
2023-04-25T18:53:56.298Z,90.20
2023-04-25T18:56:28.062Z,89.80
2023-04-25T18:58:57.748Z,90.50
2023-04-25T19:01:26.567Z,90.20
2023-04-25T19:03:58.476Z,90.20
2023-04-25T19:06:30.054Z,90.50
2023-04-25T19:09:00.970Z,90.40
2023-04-25T19:11:28.206Z,91.30
2023-04-25T19:14:01.624Z,92.10
2023-04-25T19:16:29.120Z,91.50
2023-04-25T19:18:57.619Z,91.50
2023-04-25T19:21:28.078Z,91.70
2023-04-25T19:23:56.972Z,91.70
2023-04-25T19:26:27.629Z,91.90
2023-04-25T19:29:09.349Z,92.60
2023-04-25T19:31:37.927Z,93.00
2023-04-25T19:34:07.070Z,93.00
2023-04-25T19:36:39.200Z,92.90
2023-04-25T19:39:07.244Z,92.70
2023-04-25T19:41:36.662Z,92.70
2023-04-25T19:44:08.372Z,93.60
2023-04-25T19:46:36.843Z,93.80
2023-04-25T19:49:07.720Z,93.80
2023-04-25T19:51:37.402Z,93.70
2023-04-25T19:54:04.961Z,93.60
2023-04-25T19:56:32.542Z,93.60
2023-04-25T19:58:59.581Z,93.70
2023-04-25T20:01:28.352Z,93.80
2023-04-25T20:03:56.340Z,94.10
2023-04-25T20:06:27.226Z,94.30
2023-04-25T20:08:54.894Z,94.50
2023-04-25T20:11:22.785Z,94.70
2023-04-25T20:13:50.510Z,94.70
2023-04-25T20:16:20.036Z,95.00
2023-04-25T20:18:49.391Z,95.10
2023-04-25T20:21:18.417Z,95.30
2023-04-25T20:23:45.985Z,95.30
2023-04-25T20:26:13.114Z,95.50
2023-04-25T20:28:42.418Z,95.70
2023-04-25T20:31:11.415Z,95.80
2023-04-25T20:33:44.747Z,95.70
2023-04-25T20:36:15.968Z,95.70
2023-04-25T20:38:43.493Z,95.80
2023-04-25T20:41:10.623Z,96.00
2023-04-25T20:43:40.747Z,96.20
2023-04-25T20:46:17.211Z,96.10
2023-04-25T20:48:47.911Z,96.30
2023-04-25T20:51:20.228Z,96.40
2023-04-25T20:53:48.003Z,96.50
2023-04-25T20:56:15.580Z,97.30
2023-04-25T20:58:42.763Z,97.50
2023-04-25T21:01:09.974Z,97.60
2023-04-25T21:03:37.573Z,97.80
2023-04-25T21:06:08.647Z,97.90
2023-04-25T21:08:37.348Z,98.20
2023-04-25T21:11:05.453Z,98.10
2023-04-25T21:13:33.017Z,98.00
2023-04-25T21:16:00.693Z,97.80
2023-04-25T21:18:29.918Z,98.00
2023-04-25T21:21:04.811Z,97.90
2023-04-25T21:23:32.212Z,98.10
2023-04-25T21:26:02.027Z,97.90
2023-04-25T21:28:29.437Z,97.80
2023-04-25T21:30:57.487Z,97.90
2023-04-25T21:33:25.560Z,97.90
2023-04-25T21:35:52.841Z,98.50
2023-04-25T21:38:21.066Z,97.90
2023-04-25T21:40:49.732Z,97.80
2023-04-25T21:43:19.490Z,97.70
2023-04-25T21:46:11.053Z,97.80
2023-04-25T21:48:35.661Z,98.90
2023-04-25T21:51:06.316Z,99.40
2023-04-25T21:53:34.562Z,99.80
2023-04-25T21:56:05.521Z,99.90
2023-04-25T21:58:34.572Z,99.90
2023-04-25T22:01:02.262Z,99.90
2023-04-25T22:03:36.507Z,99.90
2023-04-25T22:06:04.432Z,99.90
2023-04-25T22:08:31.548Z,99.90
2023-04-25T22:11:00.077Z,99.90
2023-04-25T22:13:29.423Z,99.90
2023-04-25T22:15:58.979Z,99.90
2023-04-25T22:18:26.875Z,99.90
2023-04-25T22:20:54.459Z,99.90
2023-04-25T22:23:21.377Z,99.90
2023-04-25T22:28:34.161Z,99.90
2023-04-25T22:31:02.754Z,99.90
2023-04-25T22:33:30.318Z,99.90
2023-04-25T22:35:57.335Z,99.90
2023-04-25T22:38:24.834Z,99.90
2023-04-25T22:40:52.082Z,99.90
2023-04-25T22:43:19.653Z,99.90
2023-04-25T22:45:47.528Z,99.90
2023-04-25T22:48:15.900Z,99.90
2023-04-25T22:50:43.906Z,99.90
2023-04-25T22:53:11.355Z,99.90
2023-04-25T22:55:38.415Z,99.90
2023-04-25T22:58:08.960Z,99.90
2023-04-25T23:00:37.957Z,99.90
2023-04-25T23:03:06.001Z,99.90
2023-04-25T23:05:35.090Z,99.90
2023-04-25T23:08:02.022Z,99.90
2023-04-25T23:10:29.834Z,99.90
2023-04-25T23:13:00.934Z,99.90
2023-04-25T23:15:30.891Z,99.90
2023-04-25T23:17:58.862Z,99.90
2023-04-25T23:20:26.132Z,99.90
2023-04-25T23:22:55.539Z,99.90
2023-04-25T23:25:22.992Z,99.90
2023-04-25T23:27:50.643Z,99.90
2023-04-25T23:30:18.494Z,99.90
2023-04-25T23:32:45.913Z,99.90
2023-04-25T23:35:13.282Z,99.90
2023-04-25T23:37:40.649Z,99.90
2023-04-25T23:40:10.975Z,99.90
2023-04-25T23:42:39.080Z,99.90
2023-04-25T23:45:09.114Z,99.90
2023-04-25T23:47:36.498Z,99.90
2023-04-25T23:50:05.109Z,99.90
2023-04-25T23:52:32.168Z,99.90
2023-04-25T23:54:59.170Z,99.90
2023-04-25T23:57:28.435Z,99.90
2023-04-25T23:59:56.423Z,99.90
